Sagar Samrat — 9V3247 — position and weather

sailwx.info

Track history (hours):
 
Tides and Currents Weather Stations Pressure Air Temp Water Temp Dewpoint Dewpoint Depression Visibility Wind Speed Wind Dir Waves Ship Positions

Sagar Samrat

Last reported at 2018-Jun-24 14:58 UTC. Time now 2018-Jun-24 15:10 UTC.
Position N 52°28' E 004°35'.

Length 225 m; draft 14.5 m.

Type: Cargo ship. MMSI: 566014000.

Date/timePositionNaut miles runAvg speedWind from/ knotsBaromVisibWave heightAir tempDewpointWater temp
2018-Jun-24 14:58N 52°28' E 004°35'0 0.0
2018-Jun-24 14:28N 52°28' E 004°35'0 0.0
2018-Jun-24 13:58N 52°28' E 004°35'0 0.0
2018-Jun-24 13:28N 52°28' E 004°35'0 0.0
2018-Jun-24 12:58N 52°28' E 004°35'0 0.0
2018-Jun-24 12:28N 52°28' E 004°35'0 0.0
2018-Jun-24 11:58N 52°28' E 004°35'0 0.0
2018-Jun-24 11:28N 52°28' E 004°35'0 0.0
2018-Jun-24 10:58N 52°28' E 004°35'0 0.0
2018-Jun-24 10:28N 52°28' E 004°35'0 0.0
2018-Jun-24 09:58N 52°28' E 004°35'0 0.0
2018-Jun-24 09:28N 52°28' E 004°35'0 0.0
2018-Jun-24 08:58N 52°28' E 004°35'0 0.0
2018-Jun-24 08:28N 52°28' E 004°35'0 0.0
2018-Jun-24 07:58N 52°28' E 004°35'0 0.0
2018-Jun-24 07:28N 52°28' E 004°35'0 0.0
2018-Jun-24 06:55N 52°28' E 004°35'0 0.0
2018-Jun-24 06:28N 52°28' E 004°35'0 0.0
2018-Jun-24 05:55N 52°28' E 004°35'0 0.0
2018-Jun-24 05:28N 52°28' E 004°35'0 0.0
2018-Jun-24 04:58N 52°28' E 004°35'0 0.0
2018-Jun-24 04:25N 52°28' E 004°35'0 0.0
2018-Jun-24 03:58N 52°28' E 004°35'0 0.0
2018-Jun-24 03:28N 52°28' E 004°35'0 0.0
2018-Jun-24 02:58N 52°28' E 004°35'0 0.0
2018-Jun-24 02:25N 52°28' E 004°35'0 0.0
2018-Jun-24 01:58N 52°28' E 004°35'0 0.0
2018-Jun-24 01:28N 52°28' E 004°35'0 0.0
2018-Jun-24 00:55N 52°28' E 004°35'0 0.0
2018-Jun-24 00:28N 52°28' E 004°35'0 0.0
2018-Jun-23 23:58N 52°28' E 004°35'0 0.0
2018-Jun-23 23:28N 52°28' E 004°35'0 0.0
2018-Jun-23 22:55N 52°28' E 004°35'0 0.0
2018-Jun-23 22:28N 52°28' E 004°35'0 0.0
2018-Jun-23 21:58N 52°28' E 004°35'0 0.0
2018-Jun-23 21:28N 52°28' E 004°35'0 0.0
2018-Jun-23 20:55N 52°28' E 004°35'0 0.0
2018-Jun-23 20:28N 52°28' E 004°35'0 0.0
2018-Jun-23 19:58N 52°28' E 004°35'0 0.0
2018-Jun-23 19:28N 52°28' E 004°35'0 0.0
2018-Jun-23 18:58N 52°28' E 004°35'0 0.0
2018-Jun-23 18:28N 52°28' E 004°35'0 0.0
2018-Jun-23 17:55N 52°28' E 004°35'0 0.0
2018-Jun-23 17:28N 52°28' E 004°35'0 0.0
2018-Jun-23 16:58N 52°28' E 004°35'0 0.0
2018-Jun-23 16:28N 52°28' E 004°35'0 0.0
2018-Jun-23 15:58N 52°28' E 004°35'0 0.0
2018-Jun-23 15:28N 52°28' E 004°35'0 0.0
2018-Jun-23 14:58N 52°28' E 004°35'0 0.0
2018-Jun-23 14:28N 52°28' E 004°35'0 0.0
2018-Jun-23 13:58N 52°28' E 004°35'0 0.0
2018-Jun-23 13:28N 52°28' E 004°35'0 0.0
2018-Jun-23 12:58N 52°28' E 004°35'0 0.0
2018-Jun-23 12:28N 52°28' E 004°35'0 0.0
2018-Jun-23 11:58N 52°28' E 004°35'0 0.0
2018-Jun-23 11:28N 52°28' E 004°35'0 0.0
2018-Jun-23 10:58N 52°28' E 004°35'0 0.0
2018-Jun-23 10:25N 52°28' E 004°35'0 0.0
2018-Jun-23 09:58N 52°28' E 004°35'0 0.0
2018-Jun-23 09:28N 52°28' E 004°35'0 0.0
2018-Jun-23 09:00N 52°28' E 004°35'0 0.5
2018-Jun-23 08:30N 52°28' E 004°35'2 4.8
2018-Jun-23 08:01N 52°28' E 004°31'510.8
2018-Jun-23 07:31N 52°29' E 004°22'611.2
2018-Jun-23 07:01N 52°30' E 004°13'510.8
2018-Jun-23 06:31N 52°30' E 004°05'510.6
2018-Jun-23 06:01N 52°30' E 003°56'510.4
2018-Jun-23 05:30N 52°30' E 003°47'510.4
2018-Jun-23 05:00N 52°31' E 003°39'3 6.6
2018-Jun-23 04:30N 52°32' E 003°34'1 1.5
2018-Jun-23 03:51N 52°33' E 003°34'0 1.0
2018-Jun-23 03:30N 52°33' E 003°34'0 0.5
2018-Jun-23 03:00N 52°33' E 003°34'3 6.1
2018-Jun-23 02:30N 52°35' E 003°29'6 9.6
2018-Jun-23 01:53N 52°35' E 003°20'1 0.5
2018-Jun-23 00:31N 52°35' E 003°20'0 0.1
2018-Jun-23 00:28N 52°35' E 003°20'1 0.8
2018-Jun-22 22:46N 52°34' E 003°19'0 1.3
2018-Jun-22 22:28N 52°34' E 003°18'3 0.6
2018-Jun-22 17:56N 52°37' E 003°18'1 1.5
2018-Jun-22 17:18N 52°38' E 003°18'1 1.6
2018-Jun-22 16:59N 52°38' E 003°18'10 1.1
2018-Jun-22 08:35N 52°33' E 003°31'1 9.1
2018-Jun-22 08:26N 52°32' E 003°32'4 9.0
2018-Jun-22 08:01N 52°29' E 003°37'4 7.8
2018-Jun-22 07:30N 52°28' E 003°43'1 0.3
2018-Jun-22 05:10N 52°27' E 003°44'0 0.0
2018-Jun-22 04:58N 52°27' E 003°44'0 0.0
2018-Jun-22 04:28N 52°27' E 003°44'0 0.0
2018-Jun-22 03:49N 52°27' E 003°44'0 0.0
2018-Jun-22 03:28N 52°27' E 003°44'0 0.1
2018-Jun-22 02:37N 52°27' E 003°44'0 0.1
2018-Jun-22 01:04N 52°27' E 003°44'0 0.1
2018-Jun-22 00:52N 52°27' E 003°44'0 0.0
2018-Jun-22 00:22N 52°27' E 003°44'0 0.0
2018-Jun-21 23:55N 52°27' E 003°44'0 0.2
2018-Jun-21 23:25N 52°27' E 003°45'0 0.2
2018-Jun-21 22:58N 52°28' E 003°45'0 0.1
2018-Jun-21 22:16N 52°28' E 003°44'0 0.0
2018-Jun-21 21:46N 52°28' E 003°44'0 0.1
2018-Jun-21 21:10N 52°28' E 003°44'0 0.2
2018-Jun-21 20:55N 52°28' E 003°45'0 0.2
2018-Jun-21 20:28N 52°27' E 003°45'0 0.1
2018-Jun-21 19:58N 52°27' E 003°44'0 0.0
2018-Jun-21 19:19N 52°27' E 003°44'0 0.2
2018-Jun-21 18:58N 52°27' E 003°44'0 0.0
2018-Jun-21 18:22N 52°27' E 003°44'0 0.1
2018-Jun-21 17:58N 52°27' E 003°44'0 0.0
2018-Jun-21 14:01N 52°27' E 003°44'0 0.1
2018-Jun-21 13:58N 52°27' E 003°44'0 0.0
2018-Jun-21 13:19N 52°27' E 003°44'0 0.1
2018-Jun-21 12:55N 52°27' E 003°44'0 0.1
2018-Jun-21 12:28N 52°27' E 003°44'0 0.0
2018-Jun-21 11:55N 52°27' E 003°44'0 0.1
2018-Jun-21 11:28N 52°27' E 003°44'0 0.1
2018-Jun-21 10:58N 52°27' E 003°45'0 0.1
2018-Jun-21 10:16N 52°28' E 003°45'0 0.2
2018-Jun-21 09:52N 52°28' E 003°45'0 0.0
2018-Jun-21 09:13N 52°28' E 003°44'0 0.1
2018-Jun-21 08:55N 52°28' E 003°44'0 0.0
2018-Jun-21 08:19N 52°28' E 003°44'0 0.1
2018-Jun-21 07:55N 52°28' E 003°44'0 0.2
2018-Jun-21 07:25N 52°28' E 003°44'0 0.2
2018-Jun-21 06:52N 52°27' E 003°44'0 0.1
2018-Jun-21 06:28N 52°27' E 003°44'0 0.1
2018-Jun-21 04:10N 52°27' E 003°44'0 0.1
2018-Jun-21 03:46N 52°27' E 003°44'0 0.0
2018-Jun-21 03:25N 52°27' E 003°44'0 0.0
2018-Jun-21 01:49N 52°27' E 003°44'0 0.1
2018-Jun-21 01:19N 52°27' E 003°44'0 0.2
2018-Jun-21 00:58N 52°27' E 003°44'0 0.2
2018-Jun-21 00:28N 52°27' E 003°44'0 0.2
2018-Jun-20 23:52N 52°28' E 003°44'0 0.1
2018-Jun-20 23:19N 52°28' E 003°44'0 0.0
2018-Jun-20 22:52N 52°28' E 003°44'0 0.0
2018-Jun-20 22:28N 52°28' E 003°44'0 0.0
2018-Jun-20 21:49N 52°28' E 003°44'0 0.0
2018-Jun-20 21:28N 52°28' E 003°44'0 0.0
2018-Jun-20 20:58N 52°28' E 003°44'0 0.0
2018-Jun-20 20:28N 52°28' E 003°44'0 0.0
2018-Jun-20 19:58N 52°28' E 003°44'0 0.0
2018-Jun-20 19:25N 52°28' E 003°44'0 0.0
2018-Jun-20 18:58N 52°28' E 003°44'0 0.0
2018-Jun-20 18:28N 52°28' E 003°44'0 0.0
2018-Jun-20 17:58N 52°28' E 003°44'0 0.1
2018-Jun-20 17:25N 52°28' E 003°44'0 0.2
2018-Jun-20 16:58N 52°27' E 003°44'0 0.2
2018-Jun-20 16:16N 52°27' E 003°44'0 0.1
2018-Jun-20 15:49N 52°27' E 003°44'0 0.0
2018-Jun-20 15:28N 52°27' E 003°44'0 0.0
2018-Jun-20 14:58N 52°27' E 003°44'0 0.0
2018-Jun-20 14:22N 52°27' E 003°44'0 0.0
2018-Jun-20 13:55N 52°27' E 003°44'0 0.1
2018-Jun-20 13:25N 52°27' E 003°44'0 0.2
2018-Jun-20 12:43N 52°27' E 003°44'0 0.2
2018-Jun-20 12:22N 52°28' E 003°44'0 0.2
2018-Jun-20 11:58N 52°28' E 003°44'0 0.1
2018-Jun-20 11:10N 52°28' E 003°44'0 0.1
2018-Jun-20 10:58N 52°28' E 003°44'0 0.0
2018-Jun-20 10:28N 52°28' E 003°44'0 0.0
2018-Jun-20 09:55N 52°28' E 003°44'0 0.0
2018-Jun-20 09:28N 52°28' E 003°44'0 0.0
2018-Jun-20 08:52N 52°28' E 003°44'0 0.0
2018-Jun-20 08:28N 52°28' E 003°44'0 0.0
2018-Jun-20 07:58N 52°28' E 003°44'0 0.0
2018-Jun-20 07:28N 52°28' E 003°44'0 0.0
2018-Jun-20 06:52N 52°28' E 003°44'0 0.1
2018-Jun-20 06:22N 52°28' E 003°44'0 0.0
2018-Jun-20 05:58N 52°28' E 003°44'0 0.0
2018-Jun-20 05:28N 52°28' E 003°44'0 0.1
2018-Jun-20 04:58N 52°28' E 003°44'0 0.3
2018-Jun-20 04:28N 52°27' E 003°44'0 0.1
2018-Jun-20 03:31N 52°27' E 003°44'0 0.0
2018-Jun-20 03:25N 52°27' E 003°44'0 0.0
2018-Jun-20 02:43N 52°27' E 003°44'0 0.0
2018-Jun-20 02:25N 52°27' E 003°44'0 0.0
2018-Jun-20 01:25N 52°27' E 003°44'0 0.1
2018-Jun-20 00:10N 52°27' E 003°44'0 0.3
2018-Jun-19 23:58N 52°27' E 003°44'0 0.2
2018-Jun-19 23:25N 52°28' E 003°44'0 0.2
2018-Jun-19 22:58N 52°28' E 003°44'0 0.1
2018-Jun-19 22:25N 52°28' E 003°44'0 0.0
2018-Jun-19 21:49N 52°28' E 003°44'0 0.0
2018-Jun-19 21:25N 52°28' E 003°44'0 0.0
2018-Jun-19 20:58N 52°28' E 003°44'0 0.0
2018-Jun-19 20:25N 52°28' E 003°44'0 0.0
2018-Jun-19 19:58N 52°28' E 003°44'0 0.0
2018-Jun-19 19:13N 52°28' E 003°44'0 0.0
2018-Jun-19 18:58N 52°28' E 003°44'0 0.0
2018-Jun-19 18:28N 52°28' E 003°44'0 0.0
2018-Jun-19 17:58N 52°28' E 003°44'0 0.1
2018-Jun-19 17:22N 52°28' E 003°44'0 0.2
2018-Jun-19 16:52N 52°28' E 003°44'0 0.3
2018-Jun-19 16:28N 52°28' E 003°44'0 0.1
2018-Jun-19 15:58N 52°27' E 003°44'0 0.1
2018-Jun-19 15:28N 52°27' E 003°44'0 0.0
2018-Jun-19 14:55N 52°27' E 003°44'0 0.0
2018-Jun-19 14:01N 52°27' E 003°44'0 0.0
2018-Jun-19 13:49N 52°27' E 003°44'0 0.0
2018-Jun-19 12:19N 52°27' E 003°44'0 0.0
2018-Jun-19 11:43N 52°27' E 003°44'0 0.1
2018-Jun-19 11:10N 52°27' E 003°44'0 0.2
2018-Jun-19 10:58N 52°27' E 003°44'0 0.2
2018-Jun-19 10:25N 52°28' E 003°44'0 0.2
2018-Jun-19 09:49N 52°28' E 003°44'0 0.1
2018-Jun-19 09:25N 52°28' E 003°44'0 0.0
2018-Jun-19 08:40N 52°28' E 003°44'0 0.0
2018-Jun-19 08:28N 52°28' E 003°44'0 0.0
2018-Jun-19 07:58N 52°28' E 003°44'0 0.0
2018-Jun-19 07:25N 52°28' E 003°44'0 0.0
2018-Jun-19 06:58N 52°28' E 003°44'0 0.0
2018-Jun-19 06:28N 52°28' E 003°44'0 0.0
2018-Jun-19 05:58N 52°28' E 003°44'0 0.1
2018-Jun-19 05:28N 52°28' E 003°44'0 0.0
2018-Jun-19 04:55N 52°28' E 003°44'0 0.0
2018-Jun-19 04:22N 52°28' E 003°44'0 0.3
2018-Jun-19 03:55N 52°27' E 003°44'0 0.2
2018-Jun-19 02:43N 52°27' E 003°44'0 0.0
2018-Jun-19 00:49N 52°27' E 003°44'0 0.0
2018-Jun-19 00:13N 52°27' E 003°44'0 0.1
2018-Jun-18 23:58N 52°27' E 003°44'0 0.3
2018-Jun-18 23:25N 52°27' E 003°44'0 0.3
2018-Jun-18 22:58N 52°27' E 003°44'0 0.2
2018-Jun-18 22:28N 52°28' E 003°44'0 0.1
2018-Jun-18 21:58N 52°28' E 003°44'0 0.1
2018-Jun-18 21:16N 52°28' E 003°44'0 0.1
2018-Jun-18 20:49N 52°28' E 003°44'0 0.0
2018-Jun-18 20:28N 52°28' E 003°44'0 0.0
2018-Jun-18 19:58N 52°28' E 003°44'0 0.0
2018-Jun-18 19:16N 52°28' E 003°44'0 0.1
2018-Jun-18 18:58N 52°28' E 003°44'0 0.0
2018-Jun-18 18:28N 52°28' E 003°44'0 0.0
2018-Jun-18 17:58N 52°28' E 003°44'0 0.0
2018-Jun-18 17:28N 52°28' E 003°44'0 0.1
2018-Jun-18 16:58N 52°28' E 003°44'0 0.0
2018-Jun-18 16:16N 52°28' E 003°44'0 0.0
2018-Jun-18 15:58N 52°28' E 003°44'0 0.2
2018-Jun-18 14:52N 52°27' E 003°44'0 0.1
2018-Jun-18 14:22N 52°27' E 003°44'0 0.0
2018-Jun-18 13:58N 52°27' E 003°44'0 0.0
2018-Jun-18 13:22N 52°27' E 003°44'0 0.0
2018-Jun-18 12:49N 52°27' E 003°44'0 0.0
2018-Jun-18 12:28N 52°27' E 003°44'0 0.0
2018-Jun-18 11:58N 52°27' E 003°44'0 0.1
2018-Jun-18 10:37N 52°27' E 003°44'0 0.3
2018-Jun-18 10:22N 52°27' E 003°44'0 0.3
2018-Jun-18 09:58N 52°28' E 003°44'0 0.2
2018-Jun-18 09:22N 52°28' E 003°44'0 0.1
2018-Jun-18 08:16N 52°28' E 003°44'0 0.1
2018-Jun-18 07:58N 52°28' E 003°44'0 0.0
2018-Jun-18 07:25N 52°28' E 003°44'0 0.0
2018-Jun-18 06:58N 52°28' E 003°44'0 0.0
2018-Jun-18 06:16N 52°28' E 003°44'0 0.0
2018-Jun-18 04:43N 52°28' E 003°44'0 0.1
2018-Jun-18 04:28N 52°28' E 003°44'0 0.1
2018-Jun-18 03:52N 52°28' E 003°44'0 0.0
2018-Jun-18 03:25N 52°28' E 003°44'0 0.2
2018-Jun-18 02:49N 52°28' E 003°44'0 0.3
2018-Jun-18 02:28N 52°27' E 003°44'0 0.1
2018-Jun-18 01:01N 52°27' E 003°44'0 0.1
2018-Jun-18 00:58N 52°27' E 003°44'0 0.0
2018-Jun-18 00:07N 52°27' E 003°44'0 0.1
2018-Jun-17 22:37N 52°27' E 003°44'0 0.2
2018-Jun-17 22:28N 52°27' E 003°44'0 0.3
2018-Jun-17 21:55N 52°28' E 003°44'0 0.2
2018-Jun-17 21:28N 52°28' E 003°44'0 0.1
2018-Jun-17 20:55N 52°28' E 003°44'0 0.0
2018-Jun-17 20:28N 52°28' E 003°44'0 0.1
2018-Jun-17 19:58N 52°28' E 003°44'0 0.0
2018-Jun-17 19:22N 52°28' E 003°44'0 0.0
2018-Jun-17 18:55N 52°28' E 003°44'0 0.0
2018-Jun-17 18:25N 52°28' E 003°44'0 0.0
2018-Jun-17 17:58N 52°28' E 003°44'0 0.0
2018-Jun-17 17:28N 52°28' E 003°44'0 0.0
2018-Jun-17 16:58N 52°28' E 003°44'0 0.0
2018-Jun-17 16:22N 52°28' E 003°44'0 0.1
2018-Jun-17 15:55N 52°28' E 003°44'0 0.0
2018-Jun-17 15:28N 52°28' E 003°44'0 0.2
2018-Jun-17 13:49N 52°27' E 003°44'0 0.0
2018-Jun-17 13:19N 52°27' E 003°44'0 0.0
2018-Jun-17 12:58N 52°27' E 003°44'0 0.0
2018-Jun-17 12:19N 52°27' E 003°44'0 0.0
2018-Jun-17 11:13N 52°27' E 003°44'0 0.0
2018-Jun-17 10:52N 52°27' E 003°44'0 0.1
2018-Jun-17 10:25N 52°27' E 003°44'0 0.1
2018-Jun-17 09:58N 52°27' E 003°44'0 0.2
2018-Jun-17 09:28N 52°27' E 003°44'0 0.3
2018-Jun-17 08:49N 52°28' E 003°44'0 0.1
2018-Jun-17 08:19N 52°28' E 003°44'0 0.1
2018-Jun-17 07:49N 52°28' E 003°44'0 0.1
2018-Jun-17 07:28N 52°28' E 003°44'0 0.0
2018-Jun-17 06:58N 52°28' E 003°44'0 0.0
2018-Jun-17 06:22N 52°28' E 003°44'0 0.0
2018-Jun-17 05:58N 52°28' E 003°44'0 0.0
2018-Jun-17 05:19N 52°28' E 003°44'0 0.0
2018-Jun-17 04:55N 52°28' E 003°44'0 0.0
2018-Jun-17 04:25N 52°28' E 003°44'0 0.1
2018-Jun-17 03:49N 52°28' E 003°44'0 0.0
2018-Jun-17 03:28N 52°28' E 003°44'0 0.1
2018-Jun-17 02:58N 52°28' E 003°44'0 0.0
2018-Jun-17 02:25N 52°28' E 003°44'0 0.3
2018-Jun-17 01:55N 52°27' E 003°44'0 0.3
2018-Jun-17 01:28N 52°27' E 003°44'0 0.1
2018-Jun-17 00:58N 52°27' E 003°44'0 0.1
2018-Jun-17 00:28N 52°27' E 003°44'0 0.0
2018-Jun-16 23:52N 52°27' E 003°44'0 0.0
2018-Jun-16 23:28N 52°27' E 003°44'0 0.1
2018-Jun-16 22:49N 52°27' E 003°44'0 0.0
2018-Jun-16 22:25N 52°27' E 003°44'0 0.1
2018-Jun-16 21:58N 52°27' E 003°44'0 0.2
2018-Jun-16 21:28N 52°27' E 003°44'0 0.2
2018-Jun-16 20:58N 52°28' E 003°44'0 0.2
2018-Jun-16 20:28N 52°28' E 003°44'0 0.1
2018-Jun-16 19:28N 52°28' E 003°44'0 0.0
2018-Jun-16 18:58N 52°28' E 003°44'0 0.0
2018-Jun-16 18:25N 52°28' E 003°44'0 0.0
2018-Jun-16 17:37N 52°28' E 003°44'0 0.0
2018-Jun-16 17:22N 52°28' E 003°44'0 0.0
2018-Jun-16 16:55N 52°28' E 003°44'0 0.0
2018-Jun-16 16:19N 52°28' E 003°44'0 0.0
2018-Jun-16 15:43N 52°28' E 003°44'0 0.1
2018-Jun-16 15:22N 52°28' E 003°44'0 0.0
2018-Jun-16 14:55N 52°28' E 003°44'0 0.5
2018-Jun-16 14:25N 52°27' E 003°44'0 0.1
2018-Jun-16 13:52N 52°27' E 003°44'0 0.0
2018-Jun-16 13:25N 52°27' E 003°44'0 0.0
2018-Jun-16 12:55N 52°27' E 003°44'0 0.0
2018-Jun-16 12:22N 52°27' E 003°44'0 0.0
2018-Jun-16 11:58N 52°27' E 003°44'0 0.0
2018-Jun-16 11:13N 52°27' E 003°44'0 0.0
2018-Jun-16 10:55N 52°27' E 003°44'0 0.0
2018-Jun-16 10:25N 52°27' E 003°44'0 0.0
2018-Jun-16 09:49N 52°27' E 003°44'0 0.0
2018-Jun-16 09:28N 52°27' E 003°44'0 0.1
2018-Jun-16 08:25N 52°27' E 003°44'0 0.3
2018-Jun-16 07:52N 52°28' E 003°44'0 0.2
2018-Jun-16 07:28N 52°28' E 003°44'0 0.1
2018-Jun-16 06:55N 52°28' E 003°44'0 0.0
2018-Jun-16 06:28N 52°28' E 003°44'0 0.0
2018-Jun-16 05:52N 52°28' E 003°44'0 0.0
2018-Jun-16 05:25N 52°28' E 003°44'0 0.0
2018-Jun-16 04:43N 52°28' E 003°44'0 0.0
2018-Jun-16 04:19N 52°28' E 003°44'0 0.0
2018-Jun-16 03:55N 52°28' E 003°44'0 0.0
2018-Jun-16 03:22N 52°28' E 003°44'0 0.0
2018-Jun-16 02:52N 52°28' E 003°44'0 0.1
2018-Jun-16 02:25N 52°28' E 003°44'0 0.6
2018-Jun-16 01:58N 52°27' E 003°44'0 0.1
2018-Jun-16 01:25N 52°27' E 003°44'0 0.0
2018-Jun-16 00:55N 52°27' E 003°44'0 0.0
2018-Jun-16 00:13N 52°27' E 003°44'0 0.0
2018-Jun-15 23:55N 52°27' E 003°44'0 0.0
2018-Jun-15 23:28N 52°27' E 003°44'0 0.0
2018-Jun-15 22:58N 52°27' E 003°44'0 0.0
2018-Jun-15 22:25N 52°27' E 003°44'0 0.1
2018-Jun-15 21:58N 52°27' E 003°44'0 0.1
2018-Jun-15 21:28N 52°27' E 003°44'0 0.0
2018-Jun-15 20:58N 52°27' E 003°44'0 0.2
2018-Jun-15 20:26N 52°27' E 003°44'2 5.4
2018-Jun-15 20:00N 52°26' E 003°41'611.2
2018-Jun-15 19:30N 52°23' E 003°33'611.5
2018-Jun-15 19:00N 52°20' E 003°26'611.7
2018-Jun-15 18:30N 52°15' E 003°19'612.0
2018-Jun-15 18:00N 52°11' E 003°12'612.3
2018-Jun-15 17:30N 52°07' E 003°05'612.6
2018-Jun-15 17:00N 52°02' E 002°59'612.9
2018-Jun-15 16:30N 51°57' E 002°52'713.2
2018-Jun-15 16:00N 51°52' E 002°45'713.5
2018-Jun-15 15:30N 51°47' E 002°38'713.6
2018-Jun-15 15:00N 51°42' E 002°31'713.7
2018-Jun-15 14:30N 51°36' E 002°24'713.7
2018-Jun-15 14:00N 51°31' E 002°17'713.5
2018-Jun-15 13:30N 51°26' E 002°10'612.2
2018-Jun-15 13:00N 51°20' E 002°09'612.5
2018-Jun-15 12:30N 51°14' E 002°05'713.1
2018-Jun-15 12:00N 51°11' E 001°56'612.9
2018-Jun-15 11:30N 51°08' E 001°47'612.4
2018-Jun-15 11:00N 51°03' E 001°40'611.6
2018-Jun-15 10:30N 50°59' E 001°33'510.8
2018-Jun-15 10:00N 50°55' E 001°28'5 9.9
2018-Jun-15 09:30N 50°51' E 001°25'5 9.5
2018-Jun-15 09:00N 50°46' E 001°23'5 9.2
2018-Jun-15 08:30N 50°42' E 001°21'510.0
2018-Jun-15 07:59N 50°38' E 001°15'510.2
2018-Jun-15 07:29N 50°35' E 001°08'611.3
2018-Jun-15 06:58N 50°31' E 001°01'510.8
2018-Jun-15 06:29N 50°29' E 000°54'510.3
2018-Jun-15 06:00N 50°27' E 000°47'510.2
2018-Jun-15 05:30N 50°26' E 000°39'610.0
2018-Jun-15 04:53N 50°25' E 000°29'4 9.9
2018-Jun-15 04:30N 50°24' E 000°24'5 9.8
2018-Jun-15 03:59N 50°22' E 000°16'5 9.6
2018-Jun-15 03:30N 50°21' E 000°09'5 9.8
2018-Jun-15 02:58N 50°20' E 000°01'5 9.9
2018-Jun-15 02:30N 50°19' W 000°06'10 9.7
2018-Jun-15 01:29N 50°16' W 000°21'5 9.8
2018-Jun-15 01:00N 50°15' W 000°28'510.2
2018-Jun-15 00:30N 50°14' W 000°36'510.9
2018-Jun-15 00:00N 50°12' W 000°44'611.7
2018-Jun-14 23:30N 50°11' W 000°53'712.8
2018-Jun-14 22:58N 50°09' W 001°03'613.7
2018-Jun-14 22:30N 50°07' W 001°13'714.5
2018-Jun-14 22:00N 50°05' W 001°24'814.9
2018-Jun-14 21:30N 50°03' W 001°35'2415.8
2018-Jun-14 19:59N 49°57' W 002°11'915.3
2018-Jun-14 19:23N 49°55' W 002°24'614.6
2018-Jun-14 18:59N 49°53' W 002°33'714.0
2018-Jun-14 18:27N 49°51' W 002°44'613.7
2018-Jun-14 18:00N 49°50' W 002°54'813.3
2018-Jun-14 17:24N 49°47' W 003°06'512.9
2018-Jun-14 17:00N 49°46' W 003°13'612.5
2018-Jun-14 16:30N 49°43' W 003°22'711.9
2018-Jun-14 15:55N 49°41' W 003°32'610.9
2018-Jun-14 15:23N 49°42' W 003°41'411.0
2018-Jun-14 14:59N 49°42' W 003°48'  
Track history (hours):
 
Tides and Currents Weather Stations Pressure Air Temp Water Temp Dewpoint Dewpoint Depression Visibility Wind Speed Wind Dir Waves Ship Positions

Sagar Samrat

Last reported at 2018-Jun-24 14:58 UTC. Time now 2018-Jun-24 15:10 UTC.
Position N 52°28' E 004°35'.

Length 225 m; draft 14.5 m.

Type: Cargo ship. MMSI: 566014000.

Date/timePositionNaut miles runAvg speedWind from/ knotsBaromVisibWave heightAir tempDewpointWater temp
2018-Jun-24 14:58N 52°28' E 004°35'0 0.0
2018-Jun-24 14:28N 52°28' E 004°35'0 0.0
2018-Jun-24 13:58N 52°28' E 004°35'0 0.0
2018-Jun-24 13:28N 52°28' E 004°35'0 0.0
2018-Jun-24 12:58N 52°28' E 004°35'0 0.0
2018-Jun-24 12:28N 52°28' E 004°35'0 0.0
2018-Jun-24 11:58N 52°28' E 004°35'0 0.0
2018-Jun-24 11:28N 52°28' E 004°35'0 0.0
2018-Jun-24 10:58N 52°28' E 004°35'0 0.0
2018-Jun-24 10:28N 52°28' E 004°35'0 0.0
2018-Jun-24 09:58N 52°28' E 004°35'0 0.0
2018-Jun-24 09:28N 52°28' E 004°35'0 0.0
2018-Jun-24 08:58N 52°28' E 004°35'0 0.0
2018-Jun-24 08:28N 52°28' E 004°35'0 0.0
2018-Jun-24 07:58N 52°28' E 004°35'0 0.0
2018-Jun-24 07:28N 52°28' E 004°35'0 0.0
2018-Jun-24 06:55N 52°28' E 004°35'0 0.0
2018-Jun-24 06:28N 52°28' E 004°35'0 0.0
2018-Jun-24 05:55N 52°28' E 004°35'0 0.0
2018-Jun-24 05:28N 52°28' E 004°35'0 0.0
2018-Jun-24 04:58N 52°28' E 004°35'0 0.0
2018-Jun-24 04:25N 52°28' E 004°35'0 0.0
2018-Jun-24 03:58N 52°28' E 004°35'0 0.0
2018-Jun-24 03:28N 52°28' E 004°35'0 0.0
2018-Jun-24 02:58N 52°28' E 004°35'0 0.0
2018-Jun-24 02:25N 52°28' E 004°35'0 0.0
2018-Jun-24 01:58N 52°28' E 004°35'0 0.0
2018-Jun-24 01:28N 52°28' E 004°35'0 0.0
2018-Jun-24 00:55N 52°28' E 004°35'0 0.0
2018-Jun-24 00:28N 52°28' E 004°35'0 0.0
2018-Jun-23 23:58N 52°28' E 004°35'0 0.0
2018-Jun-23 23:28N 52°28' E 004°35'0 0.0
2018-Jun-23 22:55N 52°28' E 004°35'0 0.0
2018-Jun-23 22:28N 52°28' E 004°35'0 0.0
2018-Jun-23 21:58N 52°28' E 004°35'0 0.0
2018-Jun-23 21:28N 52°28' E 004°35'0 0.0
2018-Jun-23 20:55N 52°28' E 004°35'0 0.0
2018-Jun-23 20:28N 52°28' E 004°35'0 0.0
2018-Jun-23 19:58N 52°28' E 004°35'0 0.0
2018-Jun-23 19:28N 52°28' E 004°35'0 0.0
2018-Jun-23 18:58N 52°28' E 004°35'0 0.0
2018-Jun-23 18:28N 52°28' E 004°35'0 0.0
2018-Jun-23 17:55N 52°28' E 004°35'0 0.0
2018-Jun-23 17:28N 52°28' E 004°35'0 0.0
2018-Jun-23 16:58N 52°28' E 004°35'0 0.0
2018-Jun-23 16:28N 52°28' E 004°35'0 0.0
2018-Jun-23 15:58N 52°28' E 004°35'0 0.0
2018-Jun-23 15:28N 52°28' E 004°35'0 0.0
2018-Jun-23 14:58N 52°28' E 004°35'0 0.0
2018-Jun-23 14:28N 52°28' E 004°35'0 0.0
2018-Jun-23 13:58N 52°28' E 004°35'0 0.0
2018-Jun-23 13:28N 52°28' E 004°35'0 0.0
2018-Jun-23 12:58N 52°28' E 004°35'0 0.0
2018-Jun-23 12:28N 52°28' E 004°35'0 0.0
2018-Jun-23 11:58N 52°28' E 004°35'0 0.0
2018-Jun-23 11:28N 52°28' E 004°35'0 0.0
2018-Jun-23 10:58N 52°28' E 004°35'0 0.0
2018-Jun-23 10:25N 52°28' E 004°35'0 0.0
2018-Jun-23 09:58N 52°28' E 004°35'0 0.0
2018-Jun-23 09:28N 52°28' E 004°35'0 0.0
2018-Jun-23 09:00N 52°28' E 004°35'0 0.5
2018-Jun-23 08:30N 52°28' E 004°35'2 4.8
2018-Jun-23 08:01N 52°28' E 004°31'510.8
2018-Jun-23 07:31N 52°29' E 004°22'611.2
2018-Jun-23 07:01N 52°30' E 004°13'510.8
2018-Jun-23 06:31N 52°30' E 004°05'510.6
2018-Jun-23 06:01N 52°30' E 003°56'510.4
2018-Jun-23 05:30N 52°30' E 003°47'510.4
2018-Jun-23 05:00N 52°31' E 003°39'3 6.6
2018-Jun-23 04:30N 52°32' E 003°34'1 1.5
2018-Jun-23 03:51N 52°33' E 003°34'0 1.0
2018-Jun-23 03:30N 52°33' E 003°34'0 0.5
2018-Jun-23 03:00N 52°33' E 003°34'3 6.1
2018-Jun-23 02:30N 52°35' E 003°29'6 9.6
2018-Jun-23 01:53N 52°35' E 003°20'1 0.5
2018-Jun-23 00:31N 52°35' E 003°20'0 0.1
2018-Jun-23 00:28N 52°35' E 003°20'1 0.8
2018-Jun-22 22:46N 52°34' E 003°19'0 1.3
2018-Jun-22 22:28N 52°34' E 003°18'3 0.6
2018-Jun-22 17:56N 52°37' E 003°18'1 1.5
2018-Jun-22 17:18N 52°38' E 003°18'1 1.6
2018-Jun-22 16:59N 52°38' E 003°18'10 1.1
2018-Jun-22 08:35N 52°33' E 003°31'1 9.1
2018-Jun-22 08:26N 52°32' E 003°32'4 9.0
2018-Jun-22 08:01N 52°29' E 003°37'4 7.8
2018-Jun-22 07:30N 52°28' E 003°43'1 0.3
2018-Jun-22 05:10N 52°27' E 003°44'0 0.0
2018-Jun-22 04:58N 52°27' E 003°44'0 0.0
2018-Jun-22 04:28N 52°27' E 003°44'0 0.0
2018-Jun-22 03:49N 52°27' E 003°44'0 0.0
2018-Jun-22 03:28N 52°27' E 003°44'0 0.1
2018-Jun-22 02:37N 52°27' E 003°44'0 0.1
2018-Jun-22 01:04N 52°27' E 003°44'0 0.1
2018-Jun-22 00:52N 52°27' E 003°44'0 0.0
2018-Jun-22 00:22N 52°27' E 003°44'0 0.0
2018-Jun-21 23:55N 52°27' E 003°44'0 0.2
2018-Jun-21 23:25N 52°27' E 003°45'0 0.2
2018-Jun-21 22:58N 52°28' E 003°45'0 0.1
2018-Jun-21 22:16N 52°28' E 003°44'0 0.0
2018-Jun-21 21:46N 52°28' E 003°44'0 0.1
2018-Jun-21 21:10N 52°28' E 003°44'0 0.2
2018-Jun-21 20:55N 52°28' E 003°45'0 0.2
2018-Jun-21 20:28N 52°27' E 003°45'0 0.1
2018-Jun-21 19:58N 52°27' E 003°44'0 0.0
2018-Jun-21 19:19N 52°27' E 003°44'0 0.2
2018-Jun-21 18:58N 52°27' E 003°44'0 0.0
2018-Jun-21 18:22N 52°27' E 003°44'0 0.1
2018-Jun-21 17:58N 52°27' E 003°44'0 0.0
2018-Jun-21 14:01N 52°27' E 003°44'0 0.1
2018-Jun-21 13:58N 52°27' E 003°44'0 0.0
2018-Jun-21 13:19N 52°27' E 003°44'0 0.1
2018-Jun-21 12:55N 52°27' E 003°44'0 0.1
2018-Jun-21 12:28N 52°27' E 003°44'0 0.0
2018-Jun-21 11:55N 52°27' E 003°44'0 0.1
2018-Jun-21 11:28N 52°27' E 003°44'0 0.1
2018-Jun-21 10:58N 52°27' E 003°45'0 0.1
2018-Jun-21 10:16N 52°28' E 003°45'0 0.2
2018-Jun-21 09:52N 52°28' E 003°45'0 0.0
2018-Jun-21 09:13N 52°28' E 003°44'0 0.1
2018-Jun-21 08:55N 52°28' E 003°44'0 0.0
2018-Jun-21 08:19N 52°28' E 003°44'0 0.1
2018-Jun-21 07:55N 52°28' E 003°44'0 0.2
2018-Jun-21 07:25N 52°28' E 003°44'0 0.2
2018-Jun-21 06:52N 52°27' E 003°44'0 0.1
2018-Jun-21 06:28N 52°27' E 003°44'0 0.1
2018-Jun-21 04:10N 52°27' E 003°44'0 0.1
2018-Jun-21 03:46N 52°27' E 003°44'0 0.0
2018-Jun-21 03:25N 52°27' E 003°44'0 0.0
2018-Jun-21 01:49N 52°27' E 003°44'0 0.1
2018-Jun-21 01:19N 52°27' E 003°44'0 0.2
2018-Jun-21 00:58N 52°27' E 003°44'0 0.2
2018-Jun-21 00:28N 52°27' E 003°44'0 0.2
2018-Jun-20 23:52N 52°28' E 003°44'0 0.1
2018-Jun-20 23:19N 52°28' E 003°44'0 0.0
2018-Jun-20 22:52N 52°28' E 003°44'0 0.0
2018-Jun-20 22:28N 52°28' E 003°44'0 0.0
2018-Jun-20 21:49N 52°28' E 003°44'0 0.0
2018-Jun-20 21:28N 52°28' E 003°44'0 0.0
2018-Jun-20 20:58N 52°28' E 003°44'0 0.0
2018-Jun-20 20:28N 52°28' E 003°44'0 0.0
2018-Jun-20 19:58N 52°28' E 003°44'0 0.0
2018-Jun-20 19:25N 52°28' E 003°44'0 0.0
2018-Jun-20 18:58N 52°28' E 003°44'0 0.0
2018-Jun-20 18:28N 52°28' E 003°44'0 0.0
2018-Jun-20 17:58N 52°28' E 003°44'0 0.1
2018-Jun-20 17:25N 52°28' E 003°44'0 0.2
2018-Jun-20 16:58N 52°27' E 003°44'0 0.2
2018-Jun-20 16:16N 52°27' E 003°44'0 0.1
2018-Jun-20 15:49N 52°27' E 003°44'0 0.0
2018-Jun-20 15:28N 52°27' E 003°44'0 0.0
2018-Jun-20 14:58N 52°27' E 003°44'0 0.0
2018-Jun-20 14:22N 52°27' E 003°44'0 0.0
2018-Jun-20 13:55N 52°27' E 003°44'0 0.1
2018-Jun-20 13:25N 52°27' E 003°44'0 0.2
2018-Jun-20 12:43N 52°27' E 003°44'0 0.2
2018-Jun-20 12:22N 52°28' E 003°44'0 0.2
2018-Jun-20 11:58N 52°28' E 003°44'0 0.1
2018-Jun-20 11:10N 52°28' E 003°44'0 0.1
2018-Jun-20 10:58N 52°28' E 003°44'0 0.0
2018-Jun-20 10:28N 52°28' E 003°44'0 0.0
2018-Jun-20 09:55N 52°28' E 003°44'0 0.0
2018-Jun-20 09:28N 52°28' E 003°44'0 0.0
2018-Jun-20 08:52N 52°28' E 003°44'0 0.0
2018-Jun-20 08:28N 52°28' E 003°44'0 0.0
2018-Jun-20 07:58N 52°28' E 003°44'0 0.0
2018-Jun-20 07:28N 52°28' E 003°44'0 0.0
2018-Jun-20 06:52N 52°28' E 003°44'0 0.1
2018-Jun-20 06:22N 52°28' E 003°44'0 0.0
2018-Jun-20 05:58N 52°28' E 003°44'0 0.0
2018-Jun-20 05:28N 52°28' E 003°44'0 0.1
2018-Jun-20 04:58N 52°28' E 003°44'0 0.3
2018-Jun-20 04:28N 52°27' E 003°44'0 0.1
2018-Jun-20 03:31N 52°27' E 003°44'0 0.0
2018-Jun-20 03:25N 52°27' E 003°44'0 0.0
2018-Jun-20 02:43N 52°27' E 003°44'0 0.0
2018-Jun-20 02:25N 52°27' E 003°44'0 0.0
2018-Jun-20 01:25N 52°27' E 003°44'0 0.1
2018-Jun-20 00:10N 52°27' E 003°44'0 0.3
2018-Jun-19 23:58N 52°27' E 003°44'0 0.2
2018-Jun-19 23:25N 52°28' E 003°44'0 0.2
2018-Jun-19 22:58N 52°28' E 003°44'0 0.1
2018-Jun-19 22:25N 52°28' E 003°44'0 0.0
2018-Jun-19 21:49N 52°28' E 003°44'0 0.0
2018-Jun-19 21:25N 52°28' E 003°44'0 0.0
2018-Jun-19 20:58N 52°28' E 003°44'0 0.0
2018-Jun-19 20:25N 52°28' E 003°44'0 0.0
2018-Jun-19 19:58N 52°28' E 003°44'0 0.0
2018-Jun-19 19:13N 52°28' E 003°44'0 0.0
2018-Jun-19 18:58N 52°28' E 003°44'0 0.0
2018-Jun-19 18:28N 52°28' E 003°44'0 0.0
2018-Jun-19 17:58N 52°28' E 003°44'0 0.1
2018-Jun-19 17:22N 52°28' E 003°44'0 0.2
2018-Jun-19 16:52N 52°28' E 003°44'0 0.3
2018-Jun-19 16:28N 52°28' E 003°44'0 0.1
2018-Jun-19 15:58N 52°27' E 003°44'0 0.1
2018-Jun-19 15:28N 52°27' E 003°44'0 0.0
2018-Jun-19 14:55N 52°27' E 003°44'0 0.0
2018-Jun-19 14:01N 52°27' E 003°44'0 0.0
2018-Jun-19 13:49N 52°27' E 003°44'0 0.0
2018-Jun-19 12:19N 52°27' E 003°44'0 0.0
2018-Jun-19 11:43N 52°27' E 003°44'0 0.1
2018-Jun-19 11:10N 52°27' E 003°44'0 0.2
2018-Jun-19 10:58N 52°27' E 003°44'0 0.2
2018-Jun-19 10:25N 52°28' E 003°44'0 0.2
2018-Jun-19 09:49N 52°28' E 003°44'0 0.1
2018-Jun-19 09:25N 52°28' E 003°44'0 0.0
2018-Jun-19 08:40N 52°28' E 003°44'0 0.0
2018-Jun-19 08:28N 52°28' E 003°44'0 0.0
2018-Jun-19 07:58N 52°28' E 003°44'0 0.0
2018-Jun-19 07:25N 52°28' E 003°44'0 0.0
2018-Jun-19 06:58N 52°28' E 003°44'0 0.0
2018-Jun-19 06:28N 52°28' E 003°44'0 0.0
2018-Jun-19 05:58N 52°28' E 003°44'0 0.1
2018-Jun-19 05:28N 52°28' E 003°44'0 0.0
2018-Jun-19 04:55N 52°28' E 003°44'0 0.0
2018-Jun-19 04:22N 52°28' E 003°44'0 0.3
2018-Jun-19 03:55N 52°27' E 003°44'0 0.2
2018-Jun-19 02:43N 52°27' E 003°44'0 0.0
2018-Jun-19 00:49N 52°27' E 003°44'0 0.0
2018-Jun-19 00:13N 52°27' E 003°44'0 0.1
2018-Jun-18 23:58N 52°27' E 003°44'0 0.3
2018-Jun-18 23:25N 52°27' E 003°44'0 0.3
2018-Jun-18 22:58N 52°27' E 003°44'0 0.2
2018-Jun-18 22:28N 52°28' E 003°44'0 0.1
2018-Jun-18 21:58N 52°28' E 003°44'0 0.1
2018-Jun-18 21:16N 52°28' E 003°44'0 0.1
2018-Jun-18 20:49N 52°28' E 003°44'0 0.0
2018-Jun-18 20:28N 52°28' E 003°44'0 0.0
2018-Jun-18 19:58N 52°28' E 003°44'0 0.0
2018-Jun-18 19:16N 52°28' E 003°44'0 0.1
2018-Jun-18 18:58N 52°28' E 003°44'0 0.0
2018-Jun-18 18:28N 52°28' E 003°44'0 0.0
2018-Jun-18 17:58N 52°28' E 003°44'0 0.0
2018-Jun-18 17:28N 52°28' E 003°44'0 0.1
2018-Jun-18 16:58N 52°28' E 003°44'0 0.0
2018-Jun-18 16:16N 52°28' E 003°44'0 0.0
2018-Jun-18 15:58N 52°28' E 003°44'0 0.2
2018-Jun-18 14:52N 52°27' E 003°44'0 0.1
2018-Jun-18 14:22N 52°27' E 003°44'0 0.0
2018-Jun-18 13:58N 52°27' E 003°44'0 0.0
2018-Jun-18 13:22N 52°27' E 003°44'0 0.0
2018-Jun-18 12:49N 52°27' E 003°44'0 0.0
2018-Jun-18 12:28N 52°27' E 003°44'0 0.0
2018-Jun-18 11:58N 52°27' E 003°44'0 0.1
2018-Jun-18 10:37N 52°27' E 003°44'0 0.3
2018-Jun-18 10:22N 52°27' E 003°44'0 0.3
2018-Jun-18 09:58N 52°28' E 003°44'0 0.2
2018-Jun-18 09:22N 52°28' E 003°44'0 0.1
2018-Jun-18 08:16N 52°28' E 003°44'0 0.1
2018-Jun-18 07:58N 52°28' E 003°44'0 0.0
2018-Jun-18 07:25N 52°28' E 003°44'0 0.0
2018-Jun-18 06:58N 52°28' E 003°44'0 0.0
2018-Jun-18 06:16N 52°28' E 003°44'0 0.0
2018-Jun-18 04:43N 52°28' E 003°44'0 0.1
2018-Jun-18 04:28N 52°28' E 003°44'0 0.1
2018-Jun-18 03:52N 52°28' E 003°44'0 0.0
2018-Jun-18 03:25N 52°28' E 003°44'0 0.2
2018-Jun-18 02:49N 52°28' E 003°44'0 0.3
2018-Jun-18 02:28N 52°27' E 003°44'0 0.1
2018-Jun-18 01:01N 52°27' E 003°44'0 0.1
2018-Jun-18 00:58N 52°27' E 003°44'0 0.0
2018-Jun-18 00:07N 52°27' E 003°44'0 0.1
2018-Jun-17 22:37N 52°27' E 003°44'0 0.2
2018-Jun-17 22:28N 52°27' E 003°44'0 0.3
2018-Jun-17 21:55N 52°28' E 003°44'0 0.2
2018-Jun-17 21:28N 52°28' E 003°44'0 0.1
2018-Jun-17 20:55N 52°28' E 003°44'0 0.0
2018-Jun-17 20:28N 52°28' E 003°44'0 0.1
2018-Jun-17 19:58N 52°28' E 003°44'0 0.0
2018-Jun-17 19:22N 52°28' E 003°44'0 0.0
2018-Jun-17 18:55N 52°28' E 003°44'0 0.0
2018-Jun-17 18:25N 52°28' E 003°44'0 0.0
2018-Jun-17 17:58N 52°28' E 003°44'0 0.0
2018-Jun-17 17:28N 52°28' E 003°44'0 0.0
2018-Jun-17 16:58N 52°28' E 003°44'0 0.0
2018-Jun-17 16:22N 52°28' E 003°44'0 0.1
2018-Jun-17 15:55N 52°28' E 003°44'0 0.0
2018-Jun-17 15:28N 52°28' E 003°44'0 0.2
2018-Jun-17 13:49N 52°27' E 003°44'0 0.0
2018-Jun-17 13:19N 52°27' E 003°44'0 0.0
2018-Jun-17 12:58N 52°27' E 003°44'0 0.0
2018-Jun-17 12:19N 52°27' E 003°44'0 0.0
2018-Jun-17 11:13N 52°27' E 003°44'0 0.0
2018-Jun-17 10:52N 52°27' E 003°44'0 0.1
2018-Jun-17 10:25N 52°27' E 003°44'0 0.1
2018-Jun-17 09:58N 52°27' E 003°44'0 0.2
2018-Jun-17 09:28N 52°27' E 003°44'0 0.3
2018-Jun-17 08:49N 52°28' E 003°44'0 0.1
2018-Jun-17 08:19N 52°28' E 003°44'0 0.1
2018-Jun-17 07:49N 52°28' E 003°44'0 0.1
2018-Jun-17 07:28N 52°28' E 003°44'0 0.0
2018-Jun-17 06:58N 52°28' E 003°44'0 0.0
2018-Jun-17 06:22N 52°28' E 003°44'0 0.0
2018-Jun-17 05:58N 52°28' E 003°44'0 0.0
2018-Jun-17 05:19N 52°28' E 003°44'0 0.0
2018-Jun-17 04:55N 52°28' E 003°44'0 0.0
2018-Jun-17 04:25N 52°28' E 003°44'0 0.1
2018-Jun-17 03:49N 52°28' E 003°44'0 0.0
2018-Jun-17 03:28N 52°28' E 003°44'0 0.1
2018-Jun-17 02:58N 52°28' E 003°44'0 0.0
2018-Jun-17 02:25N 52°28' E 003°44'0 0.3
2018-Jun-17 01:55N 52°27' E 003°44'0 0.3
2018-Jun-17 01:28N 52°27' E 003°44'0 0.1
2018-Jun-17 00:58N 52°27' E 003°44'0 0.1
2018-Jun-17 00:28N 52°27' E 003°44'0 0.0
2018-Jun-16 23:52N 52°27' E 003°44'0 0.0
2018-Jun-16 23:28N 52°27' E 003°44'0 0.1
2018-Jun-16 22:49N 52°27' E 003°44'0 0.0
2018-Jun-16 22:25N 52°27' E 003°44'0 0.1
2018-Jun-16 21:58N 52°27' E 003°44'0 0.2
2018-Jun-16 21:28N 52°27' E 003°44'0 0.2
2018-Jun-16 20:58N 52°28' E 003°44'0 0.2
2018-Jun-16 20:28N 52°28' E 003°44'0 0.1
2018-Jun-16 19:28N 52°28' E 003°44'0 0.0
2018-Jun-16 18:58N 52°28' E 003°44'0 0.0
2018-Jun-16 18:25N 52°28' E 003°44'0 0.0
2018-Jun-16 17:37N 52°28' E 003°44'0 0.0
2018-Jun-16 17:22N 52°28' E 003°44'0 0.0
2018-Jun-16 16:55N 52°28' E 003°44'0 0.0
2018-Jun-16 16:19N 52°28' E 003°44'0 0.0
2018-Jun-16 15:43N 52°28' E 003°44'0 0.1
2018-Jun-16 15:22N 52°28' E 003°44'0 0.0
2018-Jun-16 14:55N 52°28' E 003°44'0 0.5
2018-Jun-16 14:25N 52°27' E 003°44'0 0.1
2018-Jun-16 13:52N 52°27' E 003°44'0 0.0
2018-Jun-16 13:25N 52°27' E 003°44'0 0.0
2018-Jun-16 12:55N 52°27' E 003°44'0 0.0
2018-Jun-16 12:22N 52°27' E 003°44'0 0.0
2018-Jun-16 11:58N 52°27' E 003°44'0 0.0
2018-Jun-16 11:13N 52°27' E 003°44'0 0.0
2018-Jun-16 10:55N 52°27' E 003°44'0 0.0
2018-Jun-16 10:25N 52°27' E 003°44'0 0.0
2018-Jun-16 09:49N 52°27' E 003°44'0 0.0
2018-Jun-16 09:28N 52°27' E 003°44'0 0.1
2018-Jun-16 08:25N 52°27' E 003°44'0 0.3
2018-Jun-16 07:52N 52°28' E 003°44'0 0.2
2018-Jun-16 07:28N 52°28' E 003°44'0 0.1
2018-Jun-16 06:55N 52°28' E 003°44'0 0.0
2018-Jun-16 06:28N 52°28' E 003°44'0 0.0
2018-Jun-16 05:52N 52°28' E 003°44'0 0.0
2018-Jun-16 05:25N 52°28' E 003°44'0 0.0
2018-Jun-16 04:43N 52°28' E 003°44'0 0.0
2018-Jun-16 04:19N 52°28' E 003°44'0 0.0
2018-Jun-16 03:55N 52°28' E 003°44'0 0.0
2018-Jun-16 03:22N 52°28' E 003°44'0 0.0
2018-Jun-16 02:52N 52°28' E 003°44'0 0.1
2018-Jun-16 02:25N 52°28' E 003°44'0 0.6
2018-Jun-16 01:58N 52°27' E 003°44'0 0.1
2018-Jun-16 01:25N 52°27' E 003°44'0 0.0
2018-Jun-16 00:55N 52°27' E 003°44'0 0.0
2018-Jun-16 00:13N 52°27' E 003°44'0 0.0
2018-Jun-15 23:55N 52°27' E 003°44'0 0.0
2018-Jun-15 23:28N 52°27' E 003°44'0 0.0
2018-Jun-15 22:58N 52°27' E 003°44'0 0.0
2018-Jun-15 22:25N 52°27' E 003°44'0 0.1
2018-Jun-15 21:58N 52°27' E 003°44'0 0.1
2018-Jun-15 21:28N 52°27' E 003°44'0 0.0
2018-Jun-15 20:58N 52°27' E 003°44'0 0.2
2018-Jun-15 20:26N 52°27' E 003°44'2 5.4
2018-Jun-15 20:00N 52°26' E 003°41'611.2
2018-Jun-15 19:30N 52°23' E 003°33'611.5
2018-Jun-15 19:00N 52°20' E 003°26'611.7
2018-Jun-15 18:30N 52°15' E 003°19'612.0
2018-Jun-15 18:00N 52°11' E 003°12'612.3
2018-Jun-15 17:30N 52°07' E 003°05'612.6
2018-Jun-15 17:00N 52°02' E 002°59'612.9
2018-Jun-15 16:30N 51°57' E 002°52'713.2
2018-Jun-15 16:00N 51°52' E 002°45'713.5
2018-Jun-15 15:30N 51°47' E 002°38'713.6
2018-Jun-15 15:00N 51°42' E 002°31'713.7
2018-Jun-15 14:30N 51°36' E 002°24'713.7
2018-Jun-15 14:00N 51°31' E 002°17'713.5
2018-Jun-15 13:30N 51°26' E 002°10'612.2
2018-Jun-15 13:00N 51°20' E 002°09'612.5
2018-Jun-15 12:30N 51°14' E 002°05'713.1
2018-Jun-15 12:00N 51°11' E 001°56'612.9
2018-Jun-15 11:30N 51°08' E 001°47'612.4
2018-Jun-15 11:00N 51°03' E 001°40'611.6
2018-Jun-15 10:30N 50°59' E 001°33'510.8
2018-Jun-15 10:00N 50°55' E 001°28'5 9.9
2018-Jun-15 09:30N 50°51' E 001°25'5 9.5
2018-Jun-15 09:00N 50°46' E 001°23'5 9.2
2018-Jun-15 08:30N 50°42' E 001°21'510.0
2018-Jun-15 07:59N 50°38' E 001°15'510.2
2018-Jun-15 07:29N 50°35' E 001°08'611.3
2018-Jun-15 06:58N 50°31' E 001°01'510.8
2018-Jun-15 06:29N 50°29' E 000°54'510.3
2018-Jun-15 06:00N 50°27' E 000°47'510.2
2018-Jun-15 05:30N 50°26' E 000°39'610.0
2018-Jun-15 04:53N 50°25' E 000°29'4 9.9
2018-Jun-15 04:30N 50°24' E 000°24'5 9.8
2018-Jun-15 03:59N 50°22' E 000°16'5 9.6
2018-Jun-15 03:30N 50°21' E 000°09'5 9.8
2018-Jun-15 02:58N 50°20' E 000°01'5 9.9
2018-Jun-15 02:30N 50°19' W 000°06'10 9.7
2018-Jun-15 01:29N 50°16' W 000°21'5 9.8
2018-Jun-15 01:00N 50°15' W 000°28'510.2
2018-Jun-15 00:30N 50°14' W 000°36'510.9
2018-Jun-15 00:00N 50°12' W 000°44'611.7
2018-Jun-14 23:30N 50°11' W 000°53'712.8
2018-Jun-14 22:58N 50°09' W 001°03'613.7
2018-Jun-14 22:30N 50°07' W 001°13'714.5
2018-Jun-14 22:00N 50°05' W 001°24'814.9
2018-Jun-14 21:30N 50°03' W 001°35'2415.8
2018-Jun-14 19:59N 49°57' W 002°11'915.3
2018-Jun-14 19:23N 49°55' W 002°24'614.6
2018-Jun-14 18:59N 49°53' W 002°33'714.0
2018-Jun-14 18:27N 49°51' W 002°44'613.7
2018-Jun-14 18:00N 49°50' W 002°54'813.3
2018-Jun-14 17:24N 49°47' W 003°06'512.9
2018-Jun-14 17:00N 49°46' W 003°13'612.5
2018-Jun-14 16:30N 49°43' W 003°22'711.9
2018-Jun-14 15:55N 49°41' W 003°32'610.9
2018-Jun-14 15:23N 49°42' W 003°41'411.0
2018-Jun-14 14:59N 49°42' W 003°48'  

Dump ship's entire track history